Time;durP1;ratioP1;P1;durP2;ratioP2;P2;SDS_P1;SDS_P2;PMS_P1;PMS_P2;Temp;Humidity;BMP_temperature;BMP_pressure;BME280_temperature;BME280_humidity;BME280_pressure;Samples;Min_cycle;Max_cycle;Signal;HPM_P1;HPM_P2
2023/06/12 00:01:03;;;;;;;3.08;2.88;;;;;;;;;;5078811;22;20315;-79
2023/06/12 00:03:31;;;;;;;2.70;2.50;;;;;;;;;;5072463;28;20201;-80
2023/06/12 00:06:00;;;;;;;3.00;2.80;;;;;;;;;;5072413;28;20201;-80
2023/06/12 00:08:29;;;;;;;3.63;2.90;;;;;;;;;;5072085;28;20688;-79
2023/06/12 00:10:57;;;;;;;3.38;3.08;;;;;;;;;;5072586;28;20286;-79
2023/06/12 00:13:25;;;;;;;3.00;2.80;;;;;;;;;;5072423;28;20577;-79
2023/06/12 00:15:54;;;;;;;3.28;2.88;;;;;;;;;;5072401;28;20699;-79
2023/06/12 00:18:21;;;;;;;3.13;2.85;;;;;;;;;;5072655;28;20203;-80
2023/06/12 00:20:49;;;;;;;2.75;2.55;;;;;;;;;;5072236;28;20217;-79
2023/06/12 00:23:16;;;;;;;2.85;2.65;;;;;;;;;;5072491;28;20627;-80
2023/06/12 00:25:44;;;;;;;2.80;2.60;;;;;;;;;;5072415;28;20203;-79
2023/06/12 00:28:11;;;;;;;2.75;2.55;;;;;;;;;;5071899;28;20692;-79
2023/06/12 00:30:38;;;;;;;2.70;2.50;;;;;;;;;;5072158;28;20231;-80
2023/06/12 00:33:07;;;;;;;3.40;3.08;;;;;;;;;;5072567;28;20207;-79
2023/06/12 00:35:35;;;;;;;2.22;2.10;;;;;;;;;;5072204;28;20197;-80
2023/06/12 00:38:02;;;;;;;2.67;2.47;;;;;;;;;;5075882;28;20690;-79
2023/06/12 00:40:30;;;;;;;3.20;2.90;;;;;;;;;;5075981;28;20731;-79
2023/06/12 00:42:57;;;;;;;3.10;2.85;;;;;;;;;;5076175;28;20575;-79
2023/06/12 00:45:26;;;;;;;3.60;3.30;;;;;;;;;;5076124;28;20205;-80
2023/06/12 00:47:56;;;;;;;3.58;3.30;;;;;;;;;;5075921;28;20670;-79
2023/06/12 00:50:27;;;;;;;2.97;2.78;;;;;;;;;;5076467;28;20232;-79
2023/06/12 00:52:56;;;;;;;3.45;3.15;;;;;;;;;;5076155;28;20207;-80
2023/06/12 00:55:23;;;;;;;2.95;2.65;;;;;;;;;;5075680;28;20196;-80
2023/06/12 00:57:51;;;;;;;2.65;2.45;;;;;;;;;;5075391;28;20671;-79
2023/06/12 01:00:20;;;;;;;2.35;2.25;;;;;;;;;;5075785;28;20229;-78
2023/06/12 01:02:50;;;;;;;3.13;2.92;;;;;;;;;;5075548;28;20221;-81
2023/06/12 01:05:20;;;;;;;3.08;2.83;;;;;;;;;;5075792;28;20211;-79
2023/06/12 01:07:56;;;;;;;3.75;2.42;;;;;;;;;;5075616;28;20225;-79
2023/06/12 01:10:30;;;;;;;3.53;3.22;;;;;;;;;;5075714;28;20231;-78
2023/06/12 01:12:59;;;;;;;3.20;2.90;;;;;;;;;;5075743;28;20541;-79
2023/06/12 01:15:26;;;;;;;2.75;2.55;;;;;;;;;;5076037;28;20205;-79
2023/06/12 01:17:54;;;;;;;3.25;3.05;;;;;;;;;;5075436;28;20203;-79
2023/06/12 01:20:21;;;;;;;5.47;2.90;;;;;;;;;;5074952;28;20249;-79
2023/06/12 01:23:06;;;;;;;3.40;2.75;;;;;;;;;;5075373;28;20200;-78
2023/06/12 01:26:03;;;;;;;3.13;2.85;;;;;;;;;;5075692;28;20227;-79
2023/06/12 01:29:22;;;;;;;3.08;2.88;;;;;;;;;;5074648;28;20227;-79
2023/06/12 01:32:02;;;;;;;2.78;2.58;;;;;;;;;;5045276;28;20235;-79
2023/06/12 01:34:35;;;;;;;2.70;2.50;;;;;;;;;;5075148;28;20688;-80
2023/06/12 01:37:13;;;;;;;2.70;2.50;;;;;;;;;;5075142;28;20207;-78
2023/06/12 01:39:42;;;;;;;3.08;2.88;;;;;;;;;;5075170;28;20257;-79
2023/06/12 01:42:10;;;;;;;3.58;3.28;;;;;;;;;;5075233;28;20225;-79
2023/06/12 01:44:38;;;;;;;2.70;2.50;;;;;;;;;;5075100;28;20209;-78
2023/06/12 01:47:07;;;;;;;2.88;2.67;;;;;;;;;;5074220;28;20703;-79
2023/06/12 01:49:35;;;;;;;3.25;2.95;;;;;;;;;;5073962;28;20201;-79
2023/06/12 01:52:02;;;;;;;3.40;3.13;;;;;;;;;;5074620;28;20741;-80
2023/06/12 01:54:33;;;;;;;3.03;2.83;;;;;;;;;;5074948;28;20205;-79
2023/06/12 01:57:01;;;;;;;2.75;2.55;;;;;;;;;;5074904;28;20692;-80
2023/06/12 01:59:28;;;;;;;4.80;3.13;;;;;;;;;;5074107;28;20558;-78
2023/06/12 02:01:55;;;;;;;2.75;2.55;;;;;;;;;;5074044;28;20747;-79
2023/06/12 02:04:24;;;;;;;3.40;3.10;;;;;;;;;;5074705;28;20196;-80
2023/06/12 02:06:52;;;;;;;2.85;2.65;;;;;;;;;;5074406;28;20744;-79
2023/06/12 02:09:19;;;;;;;3.10;2.90;;;;;;;;;;5074371;28;20227;-78
2023/06/12 02:11:46;;;;;;;7.45;3.50;;;;;;;;;;5074201;28;20527;-78
2023/06/12 02:14:15;;;;;;;3.28;3.00;;;;;;;;;;5074056;28;20211;-79
2023/06/12 02:16:45;;;;;;;3.10;2.90;;;;;;;;;;5074555;28;20288;-78
2023/06/12 02:19:13;;;;;;;3.10;2.80;;;;;;;;;;5074450;28;20197;-78
2023/06/12 02:21:41;;;;;;;3.72;3.00;;;;;;;;;;5074503;28;20228;-78
2023/06/12 02:24:09;;;;;;;3.75;3.20;;;;;;;;;;5074138;28;20203;-79
2023/06/12 02:26:37;;;;;;;3.00;2.70;;;;;;;;;;5073837;28;20236;-78
2023/06/12 02:29:08;;;;;;;3.17;2.88;;;;;;;;;;5073293;28;20730;-78
2023/06/12 02:31:36;;;;;;;2.70;2.50;;;;;;;;;;5074228;28;20224;-79
2023/06/12 02:34:03;;;;;;;3.00;2.80;;;;;;;;;;5074141;28;20201;-78
2023/06/12 02:36:31;;;;;;;3.38;3.08;;;;;;;;;;5073974;28;20209;-79
2023/06/12 02:39:00;;;;;;;3.33;3.13;;;;;;;;;;5074348;28;20197;-79
2023/06/12 02:41:27;;;;;;;3.10;2.80;;;;;;;;;;5073495;28;20716;-78
2023/06/12 02:43:55;;;;;;;2.92;2.72;;;;;;;;;;5073468;28;20207;-79
2023/06/12 02:46:22;;;;;;;2.90;2.70;;;;;;;;;;5073754;28;20200;-79
2023/06/12 02:48:50;;;;;;;3.40;3.10;;;;;;;;;;5073473;28;20246;-78
2023/06/12 02:51:17;;;;;;;5.03;3.55;;;;;;;;;;5073436;28;20713;-78
2023/06/12 02:53:44;;;;;;;3.20;2.85;;;;;;;;;;5072993;28;20314;-79
2023/06/12 02:56:13;;;;;;;3.55;3.25;;;;;;;;;;5073153;28;20204;-79
2023/06/12 02:58:41;;;;;;;3.50;3.22;;;;;;;;;;5072986;28;20196;-79
2023/06/12 03:01:08;;;;;;;3.67;3.38;;;;;;;;;;5073119;28;20239;-79
2023/06/12 03:03:37;;;;;;;3.70;3.40;;;;;;;;;;5072769;28;20203;-78
2023/06/12 03:06:05;;;;;;;3.40;2.75;;;;;;;;;;5073412;28;20291;-79
2023/06/12 03:08:33;;;;;;;3.40;3.10;;;;;;;;;;5073885;28;20221;-79
2023/06/12 03:11:01;;;;;;;3.30;3.10;;;;;;;;;;5072944;28;20231;-79
2023/06/12 03:13:30;;;;;;;3.95;3.22;;;;;;;;;;5073331;28;20201;-78
2023/06/12 03:15:57;;;;;;;2.90;2.60;;;;;;;;;;5073313;28;20207;-78
2023/06/12 03:18:25;;;;;;;3.17;2.97;;;;;;;;;;5072495;28;20576;-80
2023/06/12 03:20:52;;;;;;;3.10;2.80;;;;;;;;;;5072832;28;20221;-78
2023/06/12 03:23:20;;;;;;;2.83;2.63;;;;;;;;;;5072918;28;20213;-78
2023/06/12 03:25:48;;;;;;;3.85;3.35;;;;;;;;;;5073282;28;20560;-78
2023/06/12 03:28:15;;;;;;;3.35;3.05;;;;;;;;;;5072879;28;20638;-79
2023/06/12 03:30:44;;;;;;;3.90;2.90;;;;;;;;;;5072446;28;20224;-80
2023/06/12 03:33:12;;;;;;;3.30;3.00;;;;;;;;;;5073415;28;20291;-78
2023/06/12 03:35:40;;;;;;;3.42;3.10;;;;;;;;;;5072887;28;20201;-79
2023/06/12 03:38:07;;;;;;;3.33;3.03;;;;;;;;;;5073064;28;20197;-79
2023/06/12 03:40:34;;;;;;;3.13;2.92;;;;;;;;;;5072345;28;20252;-78
2023/06/12 03:43:02;;;;;;;3.53;3.22;;;;;;;;;;5086778;28;20211;-80
2023/06/12 03:45:30;;;;;;;3.78;3.28;;;;;;;;;;5091990;28;20201;-80
2023/06/12 03:47:59;;;;;;;3.75;3.45;;;;;;;;;;5091982;28;20287;-80
2023/06/12 03:50:26;;;;;;;3.78;3.40;;;;;;;;;;5079655;28;20224;-80
2023/06/12 03:52:54;;;;;;;3.13;2.83;;;;;;;;;;5073643;28;20299;-81
2023/06/12 03:55:23;;;;;;;3.25;2.95;;;;;;;;;;5073600;28;20205;-81
2023/06/12 03:57:51;;;;;;;4.55;3.03;;;;;;;;;;5072762;28;20201;-80
2023/06/12 04:00:21;;;;;;;3.33;3.00;;;;;;;;;;5072928;28;20228;-80
2023/06/12 04:02:48;;;;;;;2.78;2.58;;;;;;;;;;5073191;28;20672;-81
2023/06/12 04:05:20;;;;;;;3.10;2.88;;;;;;;;;;5073022;28;20212;-80
2023/06/12 04:07:48;;;;;;;3.65;3.33;;;;;;;;;;5073164;28;20585;-81
2023/06/12 04:10:15;;;;;;;2.92;2.72;;;;;;;;;;5072578;28;20359;-79
2023/06/12 04:12:43;;;;;;;3.35;3.10;;;;;;;;;;5072720;28;20282;-78
2023/06/12 04:15:11;;;;;;;3.38;3.17;;;;;;;;;;5075402;28;20687;-80
2023/06/12 04:17:38;;;;;;;3.53;3.22;;;;;;;;;;5074225;28;20284;-80
2023/06/12 04:20:07;;;;;;;2.90;2.70;;;;;;;;;;5073436;28;20201;-79
2023/06/12 04:22:37;;;;;;;2.72;2.53;;;;;;;;;;5071902;28;20209;-79
2023/06/12 04:25:06;;;;;;;2.83;2.63;;;;;;;;;;5073620;28;20205;-81
2023/06/12 04:27:34;;;;;;;3.10;2.90;;;;;;;;;;5083849;28;20219;-80
2023/06/12 04:30:02;;;;;;;3.25;2.95;;;;;;;;;;5082567;28;20224;-81
2023/06/12 04:32:30;;;;;;;3.05;2.85;;;;;;;;;;5085914;28;20208;-80
2023/06/12 04:34:57;;;;;;;3.28;3.08;;;;;;;;;;5084780;28;20204;-80
2023/06/12 04:37:25;;;;;;;2.70;2.50;;;;;;;;;;5084091;28;20273;-81
2023/06/12 04:39:54;;;;;;;3.22;2.92;;;;;;;;;;5083222;28;20285;-80
2023/06/12 04:42:24;;;;;;;2.80;2.60;;;;;;;;;;5085572;28;20650;-81
2023/06/12 04:44:51;;;;;;;2.92;2.72;;;;;;;;;;5084914;28;20216;-81
2023/06/12 04:47:20;;;;;;;3.15;2.95;;;;;;;;;;5077002;28;20243;-80
2023/06/12 04:49:47;;;;;;;3.38;3.05;;;;;;;;;;5073112;28;20240;-81
2023/06/12 04:52:18;;;;;;;3.38;2.83;;;;;;;;;;5072668;28;20217;-80
2023/06/12 04:54:47;;;;;;;2.85;2.65;;;;;;;;;;5073063;28;20201;-80
2023/06/12 04:57:16;;;;;;;3.03;2.83;;;;;;;;;;5073458;28;20748;-80
2023/06/12 04:59:45;;;;;;;2.97;2.78;;;;;;;;;;5074053;28;20208;-80
2023/06/12 05:02:13;;;;;;;2.83;2.50;;;;;;;;;;5073844;28;20236;-81
2023/06/12 05:04:41;;;;;;;3.90;3.55;;;;;;;;;;5073445;28;20296;-79
2023/06/12 05:07:16;;;;;;;3.85;3.10;;;;;;;;;;5073280;28;20204;-81
2023/06/12 05:09:44;;;;;;;3.67;3.30;;;;;;;;;;5072753;28;20226;-80
2023/06/12 05:12:12;;;;;;;2.75;2.65;;;;;;;;;;5072621;28;20236;-78
2023/06/12 05:14:43;;;;;;;3.13;2.92;;;;;;;;;;5072183;28;20209;-80
2023/06/12 05:17:11;;;;;;;3.80;3.50;;;;;;;;;;5072985;28;20208;-78
2023/06/12 05:19:39;;;;;;;3.80;3.50;;;;;;;;;;5071621;28;20197;-78
2023/06/12 05:22:07;;;;;;;3.92;3.63;;;;;;;;;;5072366;28;20225;-79
2023/06/12 05:24:34;;;;;;;4.97;4.00;;;;;;;;;;5076151;28;20292;-79
2023/06/12 05:27:02;;;;;;;3.90;3.45;;;;;;;;;;5075545;28;20695;-78
2023/06/12 05:29:29;;;;;;;3.60;3.38;;;;;;;;;;5074818;28;20311;-79
2023/06/12 05:31:58;;;;;;;4.95;4.50;;;;;;;;;;5074899;28;20220;-79
2023/06/12 05:34:25;;;;;;;3.33;3.08;;;;;;;;;;5075935;28;20205;-79
2023/06/12 05:36:54;;;;;;;4.47;4.07;;;;;;;;;;5075021;28;20291;-80
2023/06/12 05:39:21;;;;;;;4.10;3.80;;;;;;;;;;5075489;28;20197;-79
2023/06/12 05:41:49;;;;;;;4.22;3.85;;;;;;;;;;5076021;28;20311;-79
2023/06/12 05:44:16;;;;;;;3.63;3.33;;;;;;;;;;5075089;28;20676;-79
2023/06/12 05:46:45;;;;;;;3.85;3.55;;;;;;;;;;5075609;28;20254;-79
2023/06/12 05:49:14;;;;;;;4.22;3.75;;;;;;;;;;5075222;28;20196;-79
2023/06/12 05:51:41;;;;;;;3.08;2.88;;;;;;;;;;5076238;28;20228;-80
2023/06/12 05:54:09;;;;;;;3.17;2.95;;;;;;;;;;5076733;28;20396;-77
2023/06/12 05:56:36;;;;;;;4.47;4.03;;;;;;;;;;5077139;28;20669;-79
2023/06/12 05:59:04;;;;;;;3.75;3.40;;;;;;;;;;5075626;28;20199;-79
2023/06/12 06:01:31;;;;;;;4.93;3.38;;;;;;;;;;5098078;22;20605;-80
2023/06/12 06:03:59;;;;;;;4.40;4.10;;;;;;;;;;5074453;28;20292;-78
2023/06/12 06:06:30;;;;;;;4.40;4.10;;;;;;;;;;5076592;28;20200;-79
2023/06/12 06:08:58;;;;;;;4.32;3.92;;;;;;;;;;5075724;28;20731;-78
2023/06/12 06:11:26;;;;;;;4.60;4.15;;;;;;;;;;5076326;28;20228;-80
2023/06/12 06:13:53;;;;;;;3.72;3.42;;;;;;;;;;5074520;28;20701;-80
2023/06/12 06:16:21;;;;;;;4.60;4.20;;;;;;;;;;5074763;28;20205;-81
2023/06/12 06:18:48;;;;;;;3.70;3.40;;;;;;;;;;5075313;28;20205;-79
2023/06/12 06:21:16;;;;;;;3.40;3.13;;;;;;;;;;5075327;28;20299;-80
2023/06/12 06:23:45;;;;;;;3.47;3.17;;;;;;;;;;5076256;28;20568;-80
2023/06/12 06:26:12;;;;;;;3.10;2.90;;;;;;;;;;5076519;28;20201;-79
2023/06/12 06:28:40;;;;;;;4.53;4.13;;;;;;;;;;5075405;28;20695;-80
2023/06/12 06:31:08;;;;;;;4.18;3.78;;;;;;;;;;5075254;28;20231;-80
2023/06/12 06:33:36;;;;;;;4.30;3.97;;;;;;;;;;5074406;28;20576;-79
2023/06/12 06:36:04;;;;;;;4.45;4.15;;;;;;;;;;5075519;28;20354;-79
2023/06/12 06:38:32;;;;;;;4.93;4.45;;;;;;;;;;5074497;28;20197;-79
2023/06/12 06:41:00;;;;;;;4.47;4.18;;;;;;;;;;5074655;28;20623;-79
2023/06/12 06:43:28;;;;;;;3.70;3.40;;;;;;;;;;5075669;28;20300;-79
2023/06/12 06:45:55;;;;;;;3.83;3.53;;;;;;;;;;5076172;28;20209;-79
2023/06/12 06:48:23;;;;;;;3.40;3.10;;;;;;;;;;5076785;28;20200;-80
2023/06/12 06:50:50;;;;;;;3.13;2.92;;;;;;;;;;5075050;28;20231;-81
2023/06/12 06:53:18;;;;;;;4.38;4.05;;;;;;;;;;5075676;28;20201;-79
2023/06/12 06:55:45;;;;;;;4.97;4.55;;;;;;;;;;5075780;28;20622;-79
2023/06/12 06:58:14;;;;;;;5.32;4.90;;;;;;;;;;5074503;28;20296;-80
2023/06/12 07:00:42;;;;;;;4.68;4.28;;;;;;;;;;5073491;28;20729;-79
2023/06/12 07:03:09;;;;;;;3.78;3.50;;;;;;;;;;5075407;28;20300;-81
2023/06/12 07:05:37;;;;;;;3.83;3.42;;;;;;;;;;5074268;28;20208;-78
2023/06/12 07:08:04;;;;;;;4.53;4.22;;;;;;;;;;5072957;28;20288;-79
2023/06/12 07:10:32;;;;;;;3.75;3.45;;;;;;;;;;5073581;28;20224;-79
2023/06/12 07:12:59;;;;;;;3.90;3.60;;;;;;;;;;5073335;28;20305;-78
2023/06/12 07:15:28;;;;;;;4.10;3.80;;;;;;;;;;5073189;28;20307;-80
2023/06/12 07:17:55;;;;;;;4.38;4.03;;;;;;;;;;5072922;28;20227;-80
2023/06/12 07:20:23;;;;;;;4.18;3.88;;;;;;;;;;5073373;28;20211;-80
2023/06/12 07:22:50;;;;;;;4.35;3.95;;;;;;;;;;5072877;28;20321;-78
2023/06/12 07:25:18;;;;;;;3.67;3.38;;;;;;;;;;5073287;28;20197;-79
2023/06/12 07:27:45;;;;;;;4.13;3.83;;;;;;;;;;5073758;28;20208;-80
2023/06/12 07:30:14;;;;;;;3.75;3.45;;;;;;;;;;5072924;28;20201;-79
2023/06/12 07:32:42;;;;;;;3.97;3.67;;;;;;;;;;5073204;28;20255;-79
2023/06/12 07:35:10;;;;;;;5.57;5.10;;;;;;;;;;5073038;28;20288;-79
2023/06/12 07:37:39;;;;;;;4.22;3.92;;;;;;;;;;5073049;28;20197;-80
2023/06/12 07:40:08;;;;;;;4.13;3.83;;;;;;;;;;5073279;28;20197;-80
2023/06/12 07:42:36;;;;;;;4.47;4.18;;;;;;;;;;5072849;28;20608;-80
2023/06/12 07:45:04;;;;;;;4.10;3.80;;;;;;;;;;5072664;28;20236;-79
2023/06/12 07:47:32;;;;;;;4.18;3.70;;;;;;;;;;5072891;28;20244;-80
2023/06/12 07:50:01;;;;;;;4.55;4.15;;;;;;;;;;5073037;28;20201;-78
2023/06/12 07:52:29;;;;;;;3.90;3.60;;;;;;;;;;5072787;28;20346;-80
2023/06/12 07:54:57;;;;;;;4.07;3.78;;;;;;;;;;5072439;28;20838;-79
2023/06/12 07:57:24;;;;;;;4.30;3.90;;;;;;;;;;5072118;28;20212;-78
2023/06/12 07:59:52;;;;;;;5.75;4.10;;;;;;;;;;5071852;28;20197;-78
2023/06/12 08:02:19;;;;;;;4.90;4.53;;;;;;;;;;5071637;28;20722;-78
2023/06/12 08:04:47;;;;;;;4.40;4.00;;;;;;;;;;5072312;28;20291;-79
2023/06/12 08:07:16;;;;;;;4.93;4.50;;;;;;;;;;5071943;28;20291;-80
2023/06/12 08:09:44;;;;;;;3.80;3.50;;;;;;;;;;5071473;28;20255;-79
2023/06/12 08:12:11;;;;;;;3.58;3.30;;;;;;;;;;5071813;28;20235;-79
2023/06/12 08:14:39;;;;;;;4.20;3.90;;;;;;;;;;5071616;28;20262;-80
2023/06/12 08:17:08;;;;;;;4.18;3.80;;;;;;;;;;5072251;28;20679;-78
2023/06/12 08:19:36;;;;;;;4.53;4.13;;;;;;;;;;5071766;28;20201;-78
2023/06/12 08:22:07;;;;;;;6.20;5.70;;;;;;;;;;5071946;28;20229;-79
2023/06/12 08:24:36;;;;;;;5.30;4.80;;;;;;;;;;5071731;28;20209;-81
2023/06/12 08:27:05;;;;;;;4.72;4.35;;;;;;;;;;5071876;28;20295;-78
2023/06/12 08:29:34;;;;;;;5.85;5.35;;;;;;;;;;5071160;28;20287;-79
2023/06/12 08:32:02;;;;;;;6.53;6.03;;;;;;;;;;5071716;28;20244;-78
2023/06/12 08:34:29;;;;;;;5.22;4.72;;;;;;;;;;5071842;28;20296;-78
2023/06/12 08:36:57;;;;;;;5.28;4.88;;;;;;;;;;5072006;28;20581;-79
2023/06/12 08:39:25;;;;;;;4.65;4.25;;;;;;;;;;5071741;28;20300;-78
2023/06/12 08:42:05;;;;;;;5.05;4.57;;;;;;;;;;5071663;28;20640;-79
2023/06/12 08:44:33;;;;;;;5.43;4.93;;;;;;;;;;5071614;28;20204;-79
2023/06/12 08:47:03;;;;;;;4.55;4.18;;;;;;;;;;5071686;28;20219;-78
2023/06/12 08:49:32;;;;;;;4.70;4.32;;;;;;;;;;5071249;28;20207;-77
2023/06/12 08:52:00;;;;;;;4.95;3.75;;;;;;;;;;5071762;28;20231;-80
2023/06/12 08:54:28;;;;;;;5.00;4.25;;;;;;;;;;5071720;28;20205;-79
2023/06/12 08:56:59;;;;;;;4.90;4.53;;;;;;;;;;5072696;28;20292;-81
2023/06/12 08:59:26;;;;;;;4.65;4.25;;;;;;;;;;5075133;28;20224;-79
2023/06/12 09:01:57;;;;;;;4.57;4.18;;;;;;;;;;5075219;28;20316;-79
2023/06/12 09:04:33;;;;;;;20.05;4.45;;;;;;;;;;5075375;28;20204;-78
2023/06/12 09:07:03;;;;;;;4.70;4.30;;;;;;;;;;5075331;28;20299;-79
2023/06/12 09:09:40;;;;;;;5.40;4.25;;;;;;;;;;5075038;28;20614;-79
2023/06/12 09:12:12;;;;;;;4.22;3.92;;;;;;;;;;5075042;28;20220;-83
2023/06/12 09:14:41;;;;;;;4.22;3.92;;;;;;;;;;5074768;28;20301;-79
2023/06/12 09:17:09;;;;;;;5.00;4.60;;;;;;;;;;5075005;28;20695;-79
2023/06/12 09:19:38;;;;;;;4.35;4.05;;;;;;;;;;5075082;28;20247;-78
2023/06/12 09:22:05;;;;;;;4.80;3.65;;;;;;;;;;5075117;28;20213;-79
2023/06/12 09:24:33;;;;;;;3.80;3.50;;;;;;;;;;5074703;28;20292;-78
2023/06/12 09:27:02;;;;;;;3.63;3.17;;;;;;;;;;5074868;28;20924;-81
2023/06/12 09:29:31;;;;;;;4.57;4.28;;;;;;;;;;5075771;28;20208;-78
2023/06/12 09:32:00;;;;;;;4.22;3.92;;;;;;;;;;5075149;28;20225;-80
2023/06/12 09:34:28;;;;;;;4.25;3.95;;;;;;;;;;5074692;28;20292;-79
2023/06/12 09:36:56;;;;;;;3.92;3.63;;;;;;;;;;5074971;28;20744;-79
2023/06/12 09:39:27;;;;;;;5.88;4.30;;;;;;;;;;5074888;28;20231;-78
2023/06/12 09:41:55;;;;;;;4.38;4.07;;;;;;;;;;5074800;28;20296;-79
2023/06/12 09:44:23;;;;;;;4.20;3.72;;;;;;;;;;5074549;28;20205;-79
2023/06/12 09:46:52;;;;;;;5.22;4.10;;;;;;;;;;5075414;28;20287;-78
2023/06/12 09:49:23;;;;;;;3.97;3.65;;;;;;;;;;5074842;28;20208;-79
2023/06/12 09:51:53;;;;;;;3.78;3.38;;;;;;;;;;5073844;28;20216;-79
2023/06/12 09:54:23;;;;;;;4.18;3.88;;;;;;;;;;5073661;28;20282;-78
2023/06/12 09:56:53;;;;;;;3.90;3.60;;;;;;;;;;5074374;28;20217;-80
2023/06/12 09:59:22;;;;;;;3.55;3.35;;;;;;;;;;5073848;28;20204;-79
2023/06/12 10:01:55;;;;;;;6.15;4.05;;;;;;;;;;5074306;28;20229;-80
2023/06/12 10:04:29;;;;;;;4.43;4.03;;;;;;;;;;5074038;28;20779;-79
2023/06/12 10:07:02;;;;;;;3.53;3.30;;;;;;;;;;5074672;28;20205;-79
2023/06/12 10:09:30;;;;;;;4.05;3.75;;;;;;;;;;5073734;28;20211;-78
2023/06/12 10:11:59;;;;;;;4.35;3.58;;;;;;;;;;5073908;28;20735;-79
2023/06/12 10:14:27;;;;;;;4.65;4.30;;;;;;;;;;5073780;28;20204;-79
2023/06/12 10:16:56;;;;;;;4.00;3.70;;;;;;;;;;5073819;28;20288;-79
2023/06/12 10:19:26;;;;;;;4.07;3.78;;;;;;;;;;5074029;28;20810;-80
2023/06/12 10:21:55;;;;;;;3.92;3.63;;;;;;;;;;5073967;28;20315;-78
2023/06/12 10:24:23;;;;;;;4.10;3.80;;;;;;;;;;5073570;28;20193;-79
2023/06/12 10:26:52;;;;;;;3.75;3.45;;;;;;;;;;5073058;28;20209;-79
2023/06/12 10:29:27;;;;;;;2.85;2.65;;;;;;;;;;5073746;28;20301;-79
2023/06/12 10:32:05;;;;;;;3.42;3.13;;;;;;;;;;5073507;28;20299;-78
2023/06/12 10:34:34;;;;;;;3.83;3.53;;;;;;;;;;5073721;28;20196;-78
2023/06/12 10:37:23;;;;;;;4.05;3.75;;;;;;;;;;5073473;28;20236;-80
2023/06/12 10:40:10;;;;;;;4.10;3.80;;;;;;;;;;5073849;28;20211;-79
2023/06/12 10:42:45;;;;;;;3.40;3.15;;;;;;;;;;5073417;28;20217;-79
2023/06/12 10:45:20;;;;;;;3.90;3.60;;;;;;;;;;5072226;28;20283;-78
2023/06/12 10:48:17;;;;;;;3.28;3.08;;;;;;;;;;5072944;28;20189;-78
2023/06/12 10:50:49;;;;;;;3.40;3.08;;;;;;;;;;5067923;28;20291;-81
2023/06/12 10:53:23;;;;;;;3.80;3.58;;;;;;;;;;5078925;28;20285;-80
2023/06/12 10:55:55;;;;;;;3.83;3.53;;;;;;;;;;5079410;28;20201;-80
2023/06/12 10:58:24;;;;;;;3.30;3.00;;;;;;;;;;5079226;28;20291;-79
2023/06/12 11:00:53;;;;;;;4.50;3.88;;;;;;;;;;5077687;28;20237;-81
2023/06/12 11:03:28;;;;;;;3.63;3.33;;;;;;;;;;5076271;28;20203;-81
2023/06/12 11:05:59;;;;;;;2.88;2.67;;;;;;;;;;5077553;28;20239;-81
2023/06/12 11:08:28;;;;;;;3.45;3.20;;;;;;;;;;5076557;28;20205;-81
2023/06/12 11:10:56;;;;;;;2.67;2.58;;;;;;;;;;5076939;28;20221;-80
2023/06/12 11:13:24;;;;;;;3.03;2.83;;;;;;;;;;5076771;28;20231;-81
2023/06/12 11:15:52;;;;;;;4.18;3.88;;;;;;;;;;5077442;28;20193;-80
2023/06/12 11:18:20;;;;;;;3.80;3.50;;;;;;;;;;5076248;28;20250;-80
2023/06/12 11:20:54;;;;;;;3.35;2.92;;;;;;;;;;5075561;28;20365;-80
2023/06/12 11:23:24;;;;;;;3.35;2.95;;;;;;;;;;5077101;28;20672;-81
2023/06/12 11:25:54;;;;;;;7.50;3.72;;;;;;;;;;5075473;28;20204;-81
2023/06/12 11:28:23;;;;;;;3.65;3.35;;;;;;;;;;5076311;28;20201;-80
2023/06/12 11:30:51;;;;;;;3.42;3.17;;;;;;;;;;5074705;28;20787;-79
2023/06/12 11:33:19;;;;;;;5.78;5.10;;;;;;;;;;5075190;28;20223;-81
2023/06/12 11:35:48;;;;;;;3.88;3.58;;;;;;;;;;5075417;28;20669;-81
2023/06/12 11:38:20;;;;;;;3.70;3.40;;;;;;;;;;5075139;28;20291;-79
2023/06/12 11:40:50;;;;;;;3.00;2.80;;;;;;;;;;5074136;28;20297;-80
2023/06/12 11:43:19;;;;;;;3.25;3.05;;;;;;;;;;5073943;28;20215;-79
2023/06/12 11:45:48;;;;;;;3.55;3.25;;;;;;;;;;5075654;28;20329;-80
2023/06/12 11:48:17;;;;;;;3.60;3.13;;;;;;;;;;5074287;28;20197;-81
2023/06/12 11:50:47;;;;;;;4.80;4.50;;;;;;;;;;5075269;28;20624;-79
2023/06/12 11:53:17;;;;;;;4.00;3.60;;;;;;;;;;5074551;28;20683;-80
2023/06/12 11:55:48;;;;;;;4.53;3.65;;;;;;;;;;5074275;28;20209;-79
2023/06/12 11:58:15;;;;;;;4.35;4.05;;;;;;;;;;5074367;28;20228;-80
2023/06/12 12:00:45;;;;;;;3.45;2.97;;;;;;;;;;5074367;28;20291;-79
2023/06/12 12:03:13;;;;;;;3.65;3.35;;;;;;;;;;5094999;22;20759;-76
2023/06/12 12:05:41;;;;;;;4.35;3.80;;;;;;;;;;5071441;28;20204;-75
2023/06/12 12:08:09;;;;;;;4.05;3.55;;;;;;;;;;5071939;28;20196;-77
2023/06/12 12:10:41;;;;;;;4.05;3.65;;;;;;;;;;5072114;28;20197;-79
2023/06/12 12:13:09;;;;;;;3.67;3.45;;;;;;;;;;5071471;28;20753;-78
2023/06/12 12:15:41;;;;;;;3.40;3.10;;;;;;;;;;5072247;28;20588;-77
2023/06/12 12:18:13;;;;;;;7.30;3.67;;;;;;;;;;5071732;28;20207;-77
2023/06/12 12:20:40;;;;;;;3.28;3.03;;;;;;;;;;5072093;28;20207;-79
2023/06/12 12:23:12;;;;;;;3.83;3.53;;;;;;;;;;5071961;28;20225;-78
2023/06/12 12:25:41;;;;;;;3.78;3.47;;;;;;;;;;5072106;28;20197;-78
2023/06/12 12:28:09;;;;;;;2.85;2.65;;;;;;;;;;5071956;28;20232;-78
2023/06/12 12:30:37;;;;;;;3.38;3.17;;;;;;;;;;5071872;28;20212;-77
2023/06/12 12:33:04;;;;;;;3.25;3.05;;;;;;;;;;5074352;28;20278;-78
2023/06/12 12:35:32;;;;;;;3.72;3.40;;;;;;;;;;5075901;28;20260;-78
2023/06/12 12:37:59;;;;;;;3.42;3.22;;;;;;;;;;5075442;28;20213;-77
2023/06/12 12:40:28;;;;;;;3.75;3.42;;;;;;;;;;5075899;28;20593;-78
2023/06/12 12:42:57;;;;;;;2.78;2.58;;;;;;;;;;5075978;28;20689;-78
2023/06/12 12:45:26;;;;;;;3.08;2.88;;;;;;;;;;5075178;28;20661;-77
2023/06/12 12:47:53;;;;;;;3.17;2.80;;;;;;;;;;5075946;28;20224;-77
2023/06/12 12:50:21;;;;;;;3.25;2.95;;;;;;;;;;5075507;28;20204;-77
2023/06/12 12:52:49;;;;;;;2.72;2.53;;;;;;;;;;5075556;28;20225;-77
2023/06/12 12:55:16;;;;;;;3.28;3.08;;;;;;;;;;5075743;28;20256;-77
2023/06/12 12:57:44;;;;;;;3.58;3.38;;;;;;;;;;5075257;28;20201;-78
2023/06/12 13:00:17;;;;;;;3.28;2.97;;;;;;;;;;5075441;28;20197;-78
2023/06/12 13:02:44;;;;;;;3.75;3.45;;;;;;;;;;5075525;28;20229;-77
2023/06/12 13:05:15;;;;;;;3.17;2.97;;;;;;;;;;5075727;28;20204;-78
2023/06/12 13:07:43;;;;;;;4.03;2.72;;;;;;;;;;5078327;28;20219;-77
2023/06/12 13:10:12;;;;;;;3.22;3.03;;;;;;;;;;5095258;28;20203;-77
2023/06/12 13:12:40;;;;;;;3.75;3.45;;;;;;;;;;5093124;28;20301;-77
2023/06/12 13:15:09;;;;;;;3.28;2.65;;;;;;;;;;5074781;28;20228;-79
2023/06/12 13:17:39;;;;;;;3.08;2.88;;;;;;;;;;5076349;28;20201;-77
2023/06/12 13:20:08;;;;;;;2.72;2.53;;;;;;;;;;5075627;28;20295;-78
2023/06/12 13:22:36;;;;;;;8.38;2.50;;;;;;;;;;5074971;28;20239;-77
2023/06/12 13:25:04;;;;;;;2.30;2.15;;;;;;;;;;5073872;28;20646;-77
2023/06/12 13:27:31;;;;;;;2.33;2.13;;;;;;;;;;5073857;28;20205;-77
2023/06/12 13:29:58;;;;;;;2.08;1.98;;;;;;;;;;5073787;28;20207;-77
2023/06/12 13:32:26;;;;;;;3.05;2.75;;;;;;;;;;5073834;28;20229;-78
2023/06/12 13:34:55;;;;;;;2.30;2.10;;;;;;;;;;5073797;28;20312;-77
2023/06/12 13:37:23;;;;;;;3.08;2.88;;;;;;;;;;5073296;28;20571;-77
2023/06/12 13:39:51;;;;;;;4.10;3.28;;;;;;;;;;5074012;28;20304;-77
2023/06/12 13:42:18;;;;;;;4.18;3.28;;;;;;;;;;5073698;28;20221;-77
2023/06/12 13:44:47;;;;;;;3.20;2.95;;;;;;;;;;5072205;28;20197;-77
2023/06/12 13:47:14;;;;;;;2.78;2.50;;;;;;;;;;5073617;28;20223;-77
2023/06/12 13:49:42;;;;;;;2.58;2.38;;;;;;;;;;5073178;28;20201;-78
2023/06/12 13:52:13;;;;;;;2.63;2.38;;;;;;;;;;5073477;28;20822;-77
2023/06/12 13:54:40;;;;;;;3.30;3.00;;;;;;;;;;5073828;28;20229;-77
2023/06/12 13:57:08;;;;;;;2.88;2.35;;;;;;;;;;5073144;28;20212;-77
2023/06/12 13:59:35;;;;;;;3.38;2.95;;;;;;;;;;5083383;28;20226;-77
2023/06/12 14:02:03;;;;;;;3.88;3.00;;;;;;;;;;5093512;28;20236;-76
2023/06/12 14:04:31;;;;;;;3.88;3.58;;;;;;;;;;5094402;28;20275;-76
2023/06/12 14:06:59;;;;;;;3.65;2.63;;;;;;;;;;5094638;28;20658;-78
2023/06/12 14:09:28;;;;;;;2.65;2.45;;;;;;;;;;5094391;28;20200;-77
2023/06/12 14:11:55;;;;;;;3.10;2.90;;;;;;;;;;5093745;28;20216;-77
2023/06/12 14:14:23;;;;;;;3.17;2.83;;;;;;;;;;5077365;28;20217;-77
2023/06/12 14:16:51;;;;;;;2.75;2.42;;;;;;;;;;5073555;28;20201;-77
2023/06/12 14:19:18;;;;;;;3.15;2.20;;;;;;;;;;5072977;28;20786;-77
2023/06/12 14:21:45;;;;;;;2.70;2.50;;;;;;;;;;5072975;28;20223;-77
2023/06/12 14:24:13;;;;;;;5.20;2.45;;;;;;;;;;5073371;28;20201;-78
2023/06/12 14:26:42;;;;;;;2.58;2.47;;;;;;;;;;5073023;28;20197;-77
2023/06/12 14:29:09;;;;;;;2.70;2.50;;;;;;;;;;5069455;28;20281;-77
2023/06/12 14:31:36;;;;;;;3.10;2.88;;;;;;;;;;5063164;28;20752;-77
2023/06/12 14:34:04;;;;;;;2.95;2.75;;;;;;;;;;5072739;28;20197;-77
2023/06/12 14:36:31;;;;;;;3.03;2.83;;;;;;;;;;5073307;28;20601;-76
2023/06/12 14:38:59;;;;;;;3.28;2.70;;;;;;;;;;5082599;28;20208;-77
2023/06/12 14:41:26;;;;;;;2.97;2.78;;;;;;;;;;5092821;28;20216;-77
2023/06/12 14:43:55;;;;;;;2.55;2.35;;;;;;;;;;5081384;28;20333;-77
2023/06/12 14:46:22;;;;;;;2.70;2.50;;;;;;;;;;5073381;28;20215;-78
2023/06/12 14:48:50;;;;;;;3.28;3.08;;;;;;;;;;5072793;28;20208;-77
2023/06/12 14:51:17;;;;;;;3.65;3.22;;;;;;;;;;5072449;28;20207;-77
2023/06/12 14:53:45;;;;;;;4.93;2.80;;;;;;;;;;5072442;28;20205;-77